Time;durP1;ratioP1;P1;durP2;ratioP2;P2;SDS_P1;SDS_P2;PMS_P1;PMS_P2;Temp;Humidity;BMP_temperature;BMP_pressure;BME280_temperature;BME280_humidity;BME280_pressure;Samples;Min_cycle;Max_cycle;Signal;HPM_P1;HPM_P2
2023/11/10 00:01:59;;;;;;;0.10;0.10;;;;;;;-144.99;100.00;67352.69;5070980;28;20186;-82
2023/11/10 00:04:24;;;;;;;0.00;0.00;;;;;;;-144.99;100.00;67352.69;5071190;28;20233;-82
2023/11/10 00:06:52;;;;;;;0.00;0.00;;;;;;;-144.99;100.00;67352.69;5071881;28;20193;-83
2023/11/10 00:09:18;;;;;;;0.10;0.10;;;;;;;-144.99;100.00;67352.69;5075669;28;20190;-83
2023/11/10 00:11:44;;;;;;;0.50;0.27;;;;;;;-144.99;100.00;67352.69;5077923;28;20205;-81
2023/11/10 00:14:10;;;;;;;6.50;0.43;;;;;;;-144.99;100.00;67352.69;5081140;28;20198;-81
2023/11/10 00:16:35;;;;;;;0.13;0.13;;;;;;;-144.99;100.00;67352.69;5077937;28;20178;-81
2023/11/10 00:19:02;;;;;;;0.27;0.27;;;;;;;-144.99;100.00;67352.69;5076707;28;20213;-83
2023/11/10 00:21:28;;;;;;;0.53;0.47;;;;;;;-144.99;100.00;67352.69;5075543;28;20198;-83
2023/11/10 00:23:53;;;;;;;0.07;0.07;;;;;;;-144.99;100.00;67352.69;5074316;28;20248;-82
2023/11/10 00:26:23;;;;;;;0.00;0.00;;;;;;;-144.99;100.00;67352.69;5076146;28;20539;-84
2023/11/10 00:28:49;;;;;;;0.10;0.10;;;;;;;-144.99;100.00;67352.69;5076325;28;20178;-83
2023/11/10 00:31:14;;;;;;;0.10;0.10;;;;;;;-144.99;100.00;67352.69;5074792;28;20183;-83
2023/11/10 00:33:40;;;;;;;1.50;0.20;;;;;;;-144.99;100.00;67352.69;5075867;28;20270;-83
2023/11/10 00:36:06;;;;;;;3.10;0.30;;;;;;;-144.99;100.00;67352.69;5073553;28;20276;-83
2023/11/10 00:38:31;;;;;;;2.63;0.17;;;;;;;-144.99;100.00;67352.69;5075184;28;20182;-84
2023/11/10 00:40:57;;;;;;;0.00;0.00;;;;;;;-144.99;100.00;67352.69;5074923;28;20315;-82
2023/11/10 00:43:22;;;;;;;0.00;0.00;;;;;;;-144.99;100.00;67352.69;5075008;28;20221;-83
2023/11/10 00:45:50;;;;;;;0.10;0.10;;;;;;;-144.99;100.00;67352.69;5073450;28;20194;-82
2023/11/10 00:48:17;;;;;;;0.30;0.10;;;;;;;-144.99;100.00;67352.69;5074167;28;20278;-83
2023/11/10 00:50:42;;;;;;;0.17;0.17;;;;;;;-144.99;100.00;67352.69;5074987;28;20190;-84
2023/11/10 00:53:08;;;;;;;0.30;0.20;;;;;;;-144.99;100.00;67352.69;5074183;28;20185;-83
2023/11/10 00:55:33;;;;;;;0.17;0.17;;;;;;;-144.99;100.00;67352.69;5074388;28;20206;-82
2023/11/10 00:57:58;;;;;;;0.03;0.03;;;;;;;-144.99;100.00;67352.69;5076035;28;20179;-81
2023/11/10 01:00:24;;;;;;;0.27;0.10;;;;;;;-144.99;100.00;67352.69;5075650;28;20193;-81
2023/11/10 01:02:50;;;;;;;0.43;0.13;;;;;;;-144.99;100.00;67352.69;5073623;28;20269;-82
2023/11/10 01:05:19;;;;;;;1.07;0.33;;;;;;;-144.99;100.00;67352.69;5074732;28;20218;-81
2023/11/10 01:07:45;;;;;;;0.10;0.10;;;;;;;-144.99;100.00;67352.69;5073463;28;20237;-82
2023/11/10 01:10:12;;;;;;;0.47;0.17;;;;;;;-144.99;100.00;67352.69;5073743;28;20190;-82
2023/11/10 01:12:37;;;;;;;0.50;0.40;;;;;;;-144.99;100.00;67352.69;5075232;28;20592;-82
2023/11/10 01:15:04;;;;;;;0.10;0.10;;;;;;;-144.99;100.00;67352.69;5076098;28;20309;-84
2023/11/10 01:17:30;;;;;;;0.17;0.17;;;;;;;-144.99;100.00;67352.69;5077933;28;20170;-82
2023/11/10 01:19:58;;;;;;;2.43;0.40;;;;;;;-144.99;100.00;67352.69;5078142;28;20204;-81
2023/11/10 01:22:25;;;;;;;0.27;0.27;;;;;;;-144.99;100.00;67352.69;5077248;28;20182;-82
2023/11/10 01:24:51;;;;;;;0.23;0.23;;;;;;;-144.99;100.00;67352.69;5075407;28;20618;-83
2023/11/10 01:27:18;;;;;;;0.57;0.30;;;;;;;-144.99;100.00;67352.69;5076759;28;20194;-83
2023/11/10 01:29:44;;;;;;;0.00;0.00;;;;;;;-144.99;100.00;67352.69;5076413;28;20183;-83
2023/11/10 01:32:09;;;;;;;0.43;0.10;;;;;;;-144.99;100.00;67352.69;5075896;28;20531;-84
2023/11/10 01:34:35;;;;;;;0.00;0.00;;;;;;;-144.99;100.00;67352.69;5077212;28;20248;-84
2023/11/10 01:37:00;;;;;;;0.00;0.00;;;;;;;-144.99;100.00;67352.69;5077618;28;20189;-83
2023/11/10 01:39:25;;;;;;;0.17;0.17;;;;;;;-144.99;100.00;67352.69;5077790;28;20202;-83
2023/11/10 01:41:52;;;;;;;0.63;0.57;;;;;;;-144.99;100.00;67352.69;5077638;28;20204;-83
2023/11/10 01:44:18;;;;;;;2.10;1.30;;;;;;;-144.99;100.00;67352.69;5090811;22;20312;-84
2023/11/10 01:46:48;;;;;;;1.00;0.50;;;;;;;-144.99;100.00;67352.69;5065043;28;20238;-86
2023/11/10 01:49:15;;;;;;;0.03;0.03;;;;;;;-144.99;100.00;67352.69;5084519;28;20185;-86
2023/11/10 01:51:41;;;;;;;1.10;0.73;;;;;;;-144.99;100.00;67352.69;5064861;28;20183;-86
2023/11/10 01:54:10;;;;;;;0.30;0.30;;;;;;;-144.99;100.00;67352.69;5062660;28;20207;-86
2023/11/10 01:56:36;;;;;;;0.07;0.07;;;;;;;-144.99;100.00;67352.69;5044135;28;20195;-86
2023/11/10 01:59:05;;;;;;;0.77;0.53;;;;;;;-144.99;100.00;67352.69;5048933;28;20188;-86
2023/11/10 02:01:32;;;;;;;0.00;0.00;;;;;;;-144.99;100.00;67352.69;5048459;28;20179;-86
2023/11/10 02:04:00;;;;;;;0.57;0.57;;;;;;;-144.99;100.00;67352.69;5038579;28;20688;-86
2023/11/10 02:06:25;;;;;;;0.23;0.23;;;;;;;-144.99;100.00;67352.69;5045283;28;20266;-87
2023/11/10 02:08:51;;;;;;;0.03;0.00;;;;;;;-144.99;100.00;67352.69;5037746;28;20257;-87
2023/11/10 02:11:18;;;;;;;0.03;0.03;;;;;;;-144.99;100.00;67352.69;5045536;28;20555;-86
2023/11/10 02:13:44;;;;;;;0.20;0.20;;;;;;;-144.99;100.00;67352.69;5037504;28;20207;-86
2023/11/10 02:16:09;;;;;;;0.23;0.07;;;;;;;-144.99;100.00;67352.69;5046827;28;20198;-86
2023/11/10 02:18:34;;;;;;;0.67;0.40;;;;;;;-144.99;100.00;67352.69;5037062;28;20544;-86
2023/11/10 02:21:00;;;;;;;0.80;0.30;;;;;;;-144.99;100.00;67352.69;5046178;28;20179;-87
2023/11/10 02:23:27;;;;;;;0.00;0.00;;;;;;;-144.99;100.00;67352.69;5049784;28;20206;-87
2023/11/10 02:25:53;;;;;;;0.00;0.00;;;;;;;-144.99;100.00;67352.69;5032847;28;20180;-87
2023/11/10 02:28:19;;;;;;;0.13;0.13;;;;;;;-144.99;100.00;67352.69;5033742;28;20187;-86
2023/11/10 02:30:44;;;;;;;0.00;0.00;;;;;;;-144.99;100.00;67352.69;5044399;28;20687;-87
2023/11/10 02:33:09;;;;;;;0.40;0.40;;;;;;;-144.99;100.00;67352.69;5038853;28;20760;-86
2023/11/10 02:35:35;;;;;;;0.47;0.47;;;;;;;-144.99;100.00;67352.69;5041445;28;20614;-86
2023/11/10 02:38:00;;;;;;;6.30;0.73;;;;;;;-144.99;100.00;67352.69;5033419;28;20630;-85
2023/11/10 02:40:25;;;;;;;0.07;0.00;;;;;;;-144.99;100.00;67352.69;5041471;28;20190;-86
2023/11/10 02:42:51;;;;;;;0.00;0.00;;;;;;;-144.99;100.00;67352.69;5045108;28;20653;-87
2023/11/10 02:45:16;;;;;;;0.13;0.13;;;;;;;-144.99;100.00;67352.69;5045563;28;20247;-85
2023/11/10 02:47:42;;;;;;;0.00;0.00;;;;;;;-144.99;100.00;67352.69;5043752;28;20187;-86
2023/11/10 02:50:08;;;;;;;0.00;0.00;;;;;;;-144.99;100.00;67352.69;5048590;28;20658;-87
2023/11/10 02:52:33;;;;;;;0.00;0.00;;;;;;;-144.99;100.00;67352.69;5059058;28;20183;-87
2023/11/10 02:54:58;;;;;;;0.00;0.00;;;;;;;-144.99;100.00;67352.69;5039497;28;20211;-87
2023/11/10 02:57:24;;;;;;;4.47;0.43;;;;;;;-144.99;100.00;67352.69;5032781;28;20179;-85
2023/11/10 02:59:49;;;;;;;12.63;0.43;;;;;;;-144.99;100.00;67352.69;5036369;28;20668;-87
2023/11/10 03:02:15;;;;;;;0.00;0.00;;;;;;;-144.99;100.00;67352.69;5044995;28;20289;-87
2023/11/10 03:04:40;;;;;;;0.03;0.03;;;;;;;-144.99;100.00;67352.69;5041913;28;20203;-87
2023/11/10 03:07:06;;;;;;;0.00;0.00;;;;;;;-144.99;100.00;67352.69;5038782;28;20215;-88
2023/11/10 03:09:31;;;;;;;0.00;0.00;;;;;;;-144.99;100.00;67352.69;5050750;28;20182;-87
2023/11/10 03:11:57;;;;;;;0.00;0.00;;;;;;;-144.99;100.00;67352.69;5040562;28;20172;-87
2023/11/10 03:14:22;;;;;;;0.07;0.07;;;;;;;-144.99;100.00;67352.69;5040496;28;20234;-87
2023/11/10 03:16:48;;;;;;;0.00;0.00;;;;;;;-144.99;100.00;67352.69;5043810;28;20273;-87
2023/11/10 03:19:13;;;;;;;0.43;0.43;;;;;;;-144.99;100.00;67352.69;5037363;28;20237;-87
2023/11/10 03:21:38;;;;;;;0.23;0.23;;;;;;;-144.99;100.00;67352.69;5035539;28;20187;-89
2023/11/10 03:24:04;;;;;;;0.33;0.30;;;;;;;-144.99;100.00;67352.69;5044540;28;20233;-87
2023/11/10 03:26:30;;;;;;;0.00;0.00;;;;;;;-144.99;100.00;67352.69;5035765;28;20184;-87
2023/11/10 03:28:55;;;;;;;0.00;0.00;;;;;;;-144.99;100.00;67352.69;5048135;28;20183;-87
2023/11/10 03:31:20;;;;;;;0.00;0.00;;;;;;;-144.99;100.00;67352.69;5040741;28;20199;-88
2023/11/10 03:33:46;;;;;;;0.00;0.00;;;;;;;-144.99;100.00;67352.69;5040138;28;20299;-88
2023/11/10 03:36:12;;;;;;;0.00;0.00;;;;;;;-144.99;100.00;67352.69;5039518;28;20192;-88
2023/11/10 03:38:37;;;;;;;0.00;0.00;;;;;;;-144.99;100.00;67352.69;5041535;28;20199;-88
2023/11/10 03:41:03;;;;;;;0.00;0.00;;;;;;;-144.99;100.00;67352.69;5041226;28;20688;-88
2023/11/10 03:43:29;;;;;;;8.60;0.90;;;;;;;-144.99;100.00;67352.69;5039633;28;20176;-88
2023/11/10 03:45:55;;;;;;;0.00;0.00;;;;;;;-144.99;100.00;67352.69;5038848;28;20174;-87
2023/11/10 03:48:22;;;;;;;0.10;0.10;;;;;;;-144.99;100.00;67352.69;5047347;28;20171;-87
2023/11/10 03:50:47;;;;;;;0.00;0.00;;;;;;;-144.99;100.00;67352.69;5042779;28;20246;-87
2023/11/10 03:53:12;;;;;;;0.00;0.00;;;;;;;-144.99;100.00;67352.69;5041973;28;20219;-86
2023/11/10 03:55:38;;;;;;;0.00;0.00;;;;;;;-144.99;100.00;67352.69;5042871;28;20201;-86
2023/11/10 03:58:07;;;;;;;2.67;0.00;;;;;;;-144.99;100.00;67352.69;5041224;28;20738;-87
2023/11/10 04:00:32;;;;;;;0.00;0.00;;;;;;;-144.99;100.00;67352.69;5046909;28;20217;-86
2023/11/10 04:02:58;;;;;;;0.00;0.00;;;;;;;-144.99;100.00;67352.69;5044995;28;20592;-86
2023/11/10 04:05:23;;;;;;;0.00;0.00;;;;;;;-144.99;100.00;67352.69;5044118;28;20200;-87
2023/11/10 04:07:48;;;;;;;0.00;0.00;;;;;;;-144.99;100.00;67352.69;5042096;28;20199;-87
2023/11/10 04:10:14;;;;;;;0.00;0.00;;;;;;;-144.99;100.00;67352.69;5040055;28;20179;-87
2023/11/10 04:12:39;;;;;;;1.03;0.23;;;;;;;-144.99;100.00;67352.69;5050750;28;20252;-86
2023/11/10 04:15:05;;;;;;;0.00;0.00;;;;;;;-144.99;100.00;67352.69;5041965;28;20686;-88
2023/11/10 04:17:31;;;;;;;5.93;0.77;;;;;;;-144.99;100.00;67352.69;5038945;28;20658;-87
2023/11/10 04:19:56;;;;;;;0.00;0.00;;;;;;;-144.99;100.00;67352.69;5040338;28;20194;-87
2023/11/10 04:22:21;;;;;;;0.40;0.40;;;;;;;-144.99;100.00;67352.69;5047474;28;20190;-87
2023/11/10 04:24:47;;;;;;;0.00;0.00;;;;;;;-144.99;100.00;67352.69;5044245;28;20557;-88
2023/11/10 04:27:12;;;;;;;0.27;0.27;;;;;;;-144.99;100.00;67352.69;5043036;28;20198;-87
2023/11/10 04:29:41;;;;;;;0.30;0.30;;;;;;;-144.99;100.00;67352.69;5042293;28;20199;-87
2023/11/10 04:32:06;;;;;;;0.00;0.00;;;;;;;-144.99;100.00;67352.69;5043669;28;20629;-87
2023/11/10 04:34:31;;;;;;;0.00;0.00;;;;;;;-144.99;100.00;67352.69;5035216;28;20199;-86
2023/11/10 04:36:57;;;;;;;0.00;0.00;;;;;;;-144.99;100.00;67352.69;5044765;28;20183;-85
2023/11/10 04:39:23;;;;;;;0.00;0.00;;;;;;;-144.99;100.00;67352.69;5043410;28;20183;-86
2023/11/10 04:41:49;;;;;;;0.13;0.13;;;;;;;-144.99;100.00;67352.69;5040608;28;20188;-86
2023/11/10 04:44:15;;;;;;;0.00;0.00;;;;;;;-144.99;100.00;67352.69;5043129;28;20262;-87
2023/11/10 04:46:41;;;;;;;0.57;0.53;;;;;;;-144.99;100.00;67352.69;5044575;28;20634;-86
2023/11/10 04:49:07;;;;;;;1.10;1.10;;;;;;;-144.99;100.00;67352.69;5041489;28;20176;-88
2023/11/10 04:51:33;;;;;;;0.27;0.27;;;;;;;-144.99;100.00;67352.69;5047521;28;20262;-87
2023/11/10 04:53:58;;;;;;;0.00;0.00;;;;;;;-144.99;100.00;67352.69;5041156;28;20203;-86
2023/11/10 04:56:24;;;;;;;0.00;0.00;;;;;;;-144.99;100.00;67352.69;5041060;28;20214;-87
2023/11/10 04:58:50;;;;;;;47.87;0.83;;;;;;;-144.99;100.00;67352.69;5035047;28;20180;-86
2023/11/10 05:01:15;;;;;;;0.00;0.00;;;;;;;-144.99;100.00;67352.69;5035036;28;20633;-87
2023/11/10 05:03:41;;;;;;;0.30;0.10;;;;;;;-144.99;100.00;67352.69;5046352;28;20206;-87
2023/11/10 05:06:07;;;;;;;0.20;0.20;;;;;;;-144.99;100.00;67352.69;5040515;28;20176;-86
2023/11/10 05:08:32;;;;;;;0.00;0.00;;;;;;;-144.99;100.00;67352.69;5056628;28;20241;-87
2023/11/10 05:10:58;;;;;;;0.00;0.00;;;;;;;-144.99;100.00;67352.69;5034647;28;20190;-87
2023/11/10 05:13:23;;;;;;;0.00;0.00;;;;;;;-144.99;100.00;67352.69;5034339;28;20214;-87
2023/11/10 05:15:49;;;;;;;0.67;0.67;;;;;;;-144.99;100.00;67352.69;5038633;28;20282;-87
2023/11/10 05:18:14;;;;;;;0.00;0.00;;;;;;;-144.99;100.00;67352.69;5040421;28;20596;-86
2023/11/10 05:20:40;;;;;;;0.00;0.00;;;;;;;-144.99;100.00;67352.69;5044704;28;20190;-87
2023/11/10 05:23:05;;;;;;;0.00;0.00;;;;;;;-144.99;100.00;67352.69;5046966;28;20222;-87
2023/11/10 05:25:30;;;;;;;0.00;0.00;;;;;;;-144.99;100.00;67352.69;5034724;28;20191;-87
2023/11/10 05:27:56;;;;;;;0.00;0.00;;;;;;;-144.99;100.00;67352.69;5042980;28;20183;-86
2023/11/10 05:30:22;;;;;;;0.10;0.10;;;;;;;-144.99;100.00;67352.69;5043684;28;20687;-87
2023/11/10 05:32:47;;;;;;;0.10;0.10;;;;;;;-144.99;100.00;67352.69;5069913;28;20542;-88
2023/11/10 05:35:13;;;;;;;0.00;0.00;;;;;;;-144.99;100.00;67352.69;5058810;28;20281;-87
2023/11/10 05:37:38;;;;;;;0.00;0.00;;;;;;;-144.99;100.00;67352.69;5045346;28;20205;-87
2023/11/10 05:40:05;;;;;;;0.30;0.10;;;;;;;-144.99;100.00;67352.69;5054855;28;20191;-88
2023/11/10 05:42:31;;;;;;;0.00;0.00;;;;;;;-144.99;100.00;67352.69;5037520;28;20180;-87
2023/11/10 05:44:56;;;;;;;5.07;0.80;;;;;;;-144.99;100.00;67352.69;5054996;28;20237;-87
2023/11/10 05:47:21;;;;;;;0.00;0.00;;;;;;;-144.99;100.00;67352.69;5039847;28;20194;-88
2023/11/10 05:49:47;;;;;;;0.50;0.10;;;;;;;-144.99;100.00;67352.69;5054871;28;20215;-87
2023/11/10 05:52:13;;;;;;;0.00;0.00;;;;;;;-144.99;100.00;67352.69;5068883;28;20183;-87
2023/11/10 05:54:42;;;;;;;0.47;0.20;;;;;;;-144.99;100.00;67352.69;5039371;28;20682;-87
2023/11/10 05:57:07;;;;;;;1.07;0.40;;;;;;;-144.99;100.00;67352.69;5037107;28;20669;-86
2023/11/10 05:59:32;;;;;;;0.33;0.33;;;;;;;-144.99;100.00;67352.69;5070680;28;20215;-87
2023/11/10 06:02:00;;;;;;;1.03;0.93;;;;;;;-144.99;100.00;67352.69;5048768;28;20278;-87
2023/11/10 06:04:26;;;;;;;0.00;0.00;;;;;;;-144.99;100.00;67352.69;5041457;28;20229;-89
2023/11/10 06:06:51;;;;;;;0.57;0.47;;;;;;;-144.99;100.00;67352.69;5047491;28;20187;-87
2023/11/10 06:09:18;;;;;;;3.00;0.70;;;;;;;-144.99;100.00;67352.69;5039047;28;20555;-87
2023/11/10 06:11:46;;;;;;;0.00;0.00;;;;;;;-144.99;100.00;67352.69;5048956;28;20176;-87
2023/11/10 06:14:12;;;;;;;0.10;0.10;;;;;;;-144.99;100.00;67352.69;5046649;28;20708;-86
2023/11/10 06:16:40;;;;;;;0.47;0.27;;;;;;;-144.99;100.00;67352.69;5059874;28;20211;-88
2023/11/10 06:19:08;;;;;;;0.60;0.60;;;;;;;-144.99;100.00;67352.69;5045938;28;20191;-87
2023/11/10 06:21:34;;;;;;;0.00;0.00;;;;;;;-144.99;100.00;67352.69;5057415;28;20207;-87
2023/11/10 06:24:00;;;;;;;0.00;0.00;;;;;;;-144.99;100.00;67352.69;5059551;28;20202;-87
2023/11/10 06:26:26;;;;;;;0.40;0.17;;;;;;;-144.99;100.00;67352.69;5047964;28;20172;-89
2023/11/10 06:28:51;;;;;;;0.13;0.13;;;;;;;-144.99;100.00;67352.69;5044105;28;20233;-86
2023/11/10 06:31:26;;;;;;;1.50;1.40;;;;;;;-144.99;100.00;67352.69;5043937;28;20183;-87
2023/11/10 06:33:51;;;;;;;0.00;0.00;;;;;;;-144.99;100.00;67352.69;5056932;28;20198;-88
2023/11/10 06:36:18;;;;;;;0.40;0.40;;;;;;;-144.99;100.00;67352.69;5041219;28;20373;-87
2023/11/10 06:38:44;;;;;;;0.53;0.53;;;;;;;-144.99;100.00;67352.69;5044249;28;20176;-87
2023/11/10 06:41:10;;;;;;;0.00;0.00;;;;;;;-144.99;100.00;67352.69;5050296;28;20668;-87
2023/11/10 06:43:36;;;;;;;4.07;0.20;;;;;;;-144.99;100.00;67352.69;5056992;28;20711;-87
2023/11/10 06:46:01;;;;;;;0.47;0.20;;;;;;;-144.99;100.00;67352.69;5043123;28;20218;-87
2023/11/10 06:48:27;;;;;;;0.07;0.07;;;;;;;-144.99;100.00;67352.69;5069125;28;20236;-87
2023/11/10 06:50:52;;;;;;;1.10;0.43;;;;;;;-144.99;100.00;67352.69;5044388;28;20191;-88
2023/11/10 06:53:18;;;;;;;0.43;0.37;;;;;;;-144.99;100.00;67352.69;5044831;28;20207;-89
2023/11/10 06:55:43;;;;;;;0.10;0.10;;;;;;;-144.99;100.00;67352.69;5037591;28;20243;-87
2023/11/10 06:58:08;;;;;;;0.00;0.00;;;;;;;-144.99;100.00;67352.69;5048488;28;20186;-88
2023/11/10 07:00:34;;;;;;;0.40;0.40;;;;;;;-144.99;100.00;67352.69;5054706;28;20728;-87
2023/11/10 07:03:02;;;;;;;0.50;0.10;;;;;;;-144.99;100.00;67352.69;5036085;28;20172;-88
2023/11/10 07:05:28;;;;;;;0.10;0.10;;;;;;;-144.99;100.00;67352.69;5067390;28;20577;-88
2023/11/10 07:07:54;;;;;;;0.00;0.00;;;;;;;-144.99;100.00;67352.69;5034727;28;20270;-88
2023/11/10 07:10:20;;;;;;;0.00;0.00;;;;;;;-144.99;100.00;67352.69;5043277;28;20175;-89
2023/11/10 07:12:45;;;;;;;0.00;0.00;;;;;;;-144.99;100.00;67352.69;5045613;28;20191;-89
2023/11/10 07:15:10;;;;;;;0.00;0.00;;;;;;;-144.99;100.00;67352.69;5048719;28;20219;-88
2023/11/10 07:17:37;;;;;;;0.00;0.00;;;;;;;-144.99;100.00;67352.69;5040858;28;20201;-88
2023/11/10 07:20:06;;;;;;;0.20;0.20;;;;;;;-144.99;100.00;67352.69;5049164;28;20187;-87
2023/11/10 07:22:32;;;;;;;0.20;0.20;;;;;;;-144.99;100.00;67352.69;5048651;28;20205;-87
2023/11/10 07:24:57;;;;;;;6.40;2.37;;;;;;;-144.99;100.00;67352.69;5041478;28;20733;-87
2023/11/10 07:27:23;;;;;;;0.97;0.37;;;;;;;-144.99;100.00;67352.69;5053994;28;20172;-87
2023/11/10 07:29:48;;;;;;;0.67;0.30;;;;;;;-144.99;100.00;67352.69;5049177;28;20187;-87
2023/11/10 07:32:13;;;;;;;0.00;0.00;;;;;;;-144.99;100.00;67352.69;5039916;28;20243;-88
2023/11/10 07:34:39;;;;;;;0.00;0.00;;;;;;;-144.99;100.00;67352.69;5048497;28;20344;-86
2023/11/10 07:37:05;;;;;;;0.00;0.00;;;;;;;-144.99;100.00;67352.69;5039827;28;20182;-86
2023/11/10 07:39:30;;;;;;;0.00;0.00;;;;;;;-144.99;100.00;67352.69;5049011;28;20661;-87
2023/11/10 07:41:56;;;;;;;0.73;0.73;;;;;;;-144.99;100.00;67352.69;5046631;28;20224;-89
2023/11/10 07:44:22;;;;;;;0.10;0.10;;;;;;;-144.99;100.00;67352.69;5077280;22;20936;-91
2023/11/10 07:46:47;;;;;;;0.00;0.00;;;;;;;-144.99;100.00;67352.69;5063458;28;20186;-88
2023/11/10 07:49:13;;;;;;;0.33;0.33;;;;;;;-144.99;100.00;67352.69;5064932;28;20185;-89
2023/11/10 07:51:41;;;;;;;0.00;0.00;;;;;;;-144.99;100.00;67352.69;5059627;28;20178;-88
2023/11/10 07:54:06;;;;;;;0.80;0.63;;;;;;;-144.99;100.00;67352.69;5059359;28;20202;-89
2023/11/10 07:56:32;;;;;;;0.00;0.00;;;;;;;-144.99;100.00;67352.69;5050246;28;20196;-88
2023/11/10 07:58:57;;;;;;;0.00;0.00;;;;;;;-144.99;100.00;67352.69;5036019;28;20232;-88
2023/11/10 08:01:23;;;;;;;0.10;0.10;;;;;;;-144.99;100.00;67352.69;5051074;28;20183;-89
2023/11/10 08:03:53;;;;;;;0.43;0.43;;;;;;;-144.99;100.00;67352.69;5043183;28;20187;-89
2023/11/10 08:06:36;;;;;;;0.00;0.00;;;;;;;-144.99;100.00;67352.69;5042753;28;20186;-90
2023/11/10 08:09:04;;;;;;;0.23;0.20;;;;;;;-144.99;100.00;67352.69;5044640;28;20190;-89
2023/11/10 08:11:30;;;;;;;0.77;0.60;;;;;;;-144.99;100.00;67352.69;5049739;28;20179;-89
2023/11/10 08:13:56;;;;;;;0.40;0.40;;;;;;;-144.99;100.00;67352.69;5050813;28;20182;-89
2023/11/10 08:16:22;;;;;;;1.90;1.03;;;;;;;-144.99;100.00;67352.69;5050793;28;20202;-88
2023/11/10 08:18:49;;;;;;;0.03;0.03;;;;;;;-144.99;100.00;67352.69;5048034;28;20183;-89
2023/11/10 08:21:20;;;;;;;0.00;0.00;;;;;;;-144.99;100.00;67352.69;5051197;28;20469;-89
2023/11/10 08:23:46;;;;;;;0.10;0.10;;;;;;;-144.99;100.00;67352.69;5050468;28;20195;-89
2023/11/10 08:26:12;;;;;;;0.63;0.63;;;;;;;-144.99;100.00;67352.69;5051780;28;20682;-89
2023/11/10 08:28:45;;;;;;;0.00;0.00;;;;;;;-144.99;100.00;67352.69;5045458;28;20187;-89
2023/11/10 08:31:11;;;;;;;0.30;0.30;;;;;;;-144.99;100.00;67352.69;5054867;28;20637;-89
2023/11/10 08:33:36;;;;;;;0.13;0.13;;;;;;;-144.99;100.00;67352.69;5056592;28;20182;-89
2023/11/10 08:36:10;;;;;;;0.00;0.00;;;;;;;-144.99;100.00;67352.69;5047178;28;20205;-89
2023/11/10 08:38:36;;;;;;;0.10;0.00;;;;;;;-144.99;100.00;67352.69;5052205;28;20201;-89
2023/11/10 08:41:01;;;;;;;0.83;0.83;;;;;;;-144.99;100.00;67352.69;5050426;28;20201;-88
2023/11/10 08:43:26;;;;;;;0.00;0.00;;;;;;;-144.99;100.00;67352.69;5056971;28;20257;-88
2023/11/10 08:45:51;;;;;;;0.93;0.20;;;;;;;-144.99;100.00;67352.69;5053871;28;20211;-88
2023/11/10 08:48:17;;;;;;;0.10;0.00;;;;;;;-144.99;100.00;67352.69;5054253;28;20182;-87
2023/11/10 08:50:42;;;;;;;0.20;0.20;;;;;;;-144.99;100.00;67352.69;5037963;28;20183;-87
2023/11/10 08:53:09;;;;;;;0.40;0.40;;;;;;;-144.99;100.00;67352.69;5048542;28;20180;-88
2023/11/10 08:55:37;;;;;;;0.00;0.00;;;;;;;-144.99;100.00;67352.69;5042243;28;20203;-88
2023/11/10 08:58:03;;;;;;;0.40;0.40;;;;;;;-144.99;100.00;67352.69;5047952;28;20187;-88
2023/11/10 09:00:28;;;;;;;0.53;0.33;;;;;;;-144.99;100.00;67352.69;5054088;28;20236;-87
2023/11/10 09:02:55;;;;;;;5.70;0.90;;;;;;;-144.99;100.00;67352.69;5054335;28;20185;-88
2023/11/10 09:05:22;;;;;;;0.10;0.10;;;;;;;-144.99;100.00;67352.69;5054063;28;20276;-88
2023/11/10 09:07:48;;;;;;;0.10;0.10;;;;;;;-144.99;100.00;67352.69;5054067;28;20186;-88
2023/11/10 09:10:14;;;;;;;0.10;0.10;;;;;;;-144.99;100.00;67352.69;5055120;28;20203;-88
2023/11/10 09:12:41;;;;;;;0.40;0.40;;;;;;;-144.99;100.00;67352.69;5056445;28;20221;-88
2023/11/10 09:15:07;;;;;;;2.10;0.57;;;;;;;-144.99;100.00;67352.69;5047655;28;20745;-87
2023/11/10 09:17:33;;;;;;;0.40;0.20;;;;;;;-144.99;100.00;67352.69;5043315;28;20240;-88
2023/11/10 09:19:58;;;;;;;0.10;0.10;;;;;;;-144.99;100.00;67352.69;5053794;28;20174;-88
2023/11/10 09:22:24;;;;;;;0.40;0.30;;;;;;;-144.99;100.00;67352.69;5054902;28;20673;-88
2023/11/10 09:24:49;;;;;;;0.83;0.30;;;;;;;-144.99;100.00;67352.69;5053148;28;20195;-88
2023/11/10 09:27:15;;;;;;;0.87;0.30;;;;;;;-144.99;100.00;67352.69;5053431;28;20189;-88
2023/11/10 09:29:41;;;;;;;1.13;0.40;;;;;;;-144.99;100.00;67352.69;5053268;28;20309;-88
2023/11/10 09:32:10;;;;;;;0.73;0.23;;;;;;;-144.99;100.00;67352.69;5053426;28;20309;-87
2023/11/10 09:34:38;;;;;;;4.77;0.60;;;;;;;-144.99;100.00;67352.69;5051651;28;20207;-87
2023/11/10 09:37:06;;;;;;;3.20;0.40;;;;;;;-144.99;100.00;67352.69;5053387;28;20210;-87
2023/11/10 09:39:32;;;;;;;0.47;0.20;;;;;;;-144.99;100.00;67352.69;5050339;28;20180;-88
2023/11/10 09:42:06;;;;;;;0.40;0.40;;;;;;;-144.99;100.00;67352.69;5054346;28;20175;-88
2023/11/10 09:44:40;;;;;;;1.87;0.53;;;;;;;-144.99;100.00;67352.69;5053974;28;20211;-87
2023/11/10 09:47:08;;;;;;;0.00;0.00;;;;;;;-144.99;100.00;67352.69;5048009;28;20600;-88
2023/11/10 09:49:34;;;;;;;2.10;0.03;;;;;;;-144.99;100.00;67352.69;5053022;28;20187;-88
2023/11/10 09:52:01;;;;;;;0.00;0.00;;;;;;;-144.99;100.00;67352.69;5048997;28;20268;-88
2023/11/10 09:54:27;;;;;;;0.00;0.00;;;;;;;-144.99;100.00;67352.69;5051880;28;20302;-89
2023/11/10 09:56:55;;;;;;;0.77;0.30;;;;;;;-144.99;100.00;67352.69;5054558;28;20472;-88
2023/11/10 09:59:25;;;;;;;0.50;0.50;;;;;;;-144.99;100.00;67352.69;5057773;28;20211;-88
2023/11/10 10:01:51;;;;;;;0.63;0.63;;;;;;;-144.99;100.00;67352.69;5063663;28;20792;-88
2023/11/10 10:04:16;;;;;;;0.83;0.77;;;;;;;-144.99;100.00;67352.69;5075494;28;20206;-88
2023/11/10 10:06:42;;;;;;;0.90;0.70;;;;;;;-144.99;100.00;67352.69;5076694;28;20179;-88
2023/11/10 10:09:09;;;;;;;0.53;0.20;;;;;;;-144.99;100.00;67352.69;5076643;28;20251;-88
2023/11/10 10:11:35;;;;;;;0.10;0.10;;;;;;;-144.99;100.00;67352.69;5056557;28;20183;-88
2023/11/10 10:14:02;;;;;;;0.60;0.13;;;;;;;-144.99;100.00;67352.69;5056853;28;20194;-88
2023/11/10 10:16:27;;;;;;;0.00;0.00;;;;;;;-144.99;100.00;67352.69;5049746;28;20673;-88
2023/11/10 10:18:55;;;;;;;0.00;0.00;;;;;;;-144.99;100.00;67352.69;5053315;28;20186;-88
2023/11/10 10:21:21;;;;;;;1.07;0.40;;;;;;;-144.99;100.00;67352.69;5037394;28;20184;-88
2023/11/10 10:23:47;;;;;;;4.53;0.60;;;;;;;-144.99;100.00;67352.69;5052529;28;20183;-88
2023/11/10 10:26:14;;;;;;;0.10;0.10;;;;;;;-144.99;100.00;67352.69;5052789;28;20214;-88
2023/11/10 10:28:41;;;;;;;0.00;0.00;;;;;;;-144.99;100.00;67352.69;5054189;28;20182;-88
2023/11/10 10:31:06;;;;;;;0.20;0.10;;;;;;;-144.99;100.00;67352.69;5052914;28;20190;-87
2023/11/10 10:33:31;;;;;;;0.10;0.10;;;;;;;-144.99;100.00;67352.69;5057837;28;20174;-88
2023/11/10 10:35:57;;;;;;;1.07;0.50;;;;;;;-144.99;100.00;67352.69;5045014;28;20221;-88
2023/11/10 10:38:24;;;;;;;0.67;0.50;;;;;;;-144.99;100.00;67352.69;5052842;28;20183;-88
2023/11/10 10:40:55;;;;;;;12.63;0.37;;;;;;;-144.99;100.00;67352.69;5052904;28;20183;-88
2023/11/10 10:43:21;;;;;;;0.00;0.00;;;;;;;-144.99;100.00;67352.69;5042752;28;20206;-88
2023/11/10 10:45:47;;;;;;;0.40;0.27;;;;;;;-144.99;100.00;67352.69;5053207;28;20218;-88
2023/11/10 10:48:15;;;;;;;0.00;0.00;;;;;;;-144.99;100.00;67352.69;5052741;28;20175;-88
2023/11/10 10:50:43;;;;;;;0.73;0.53;;;;;;;-144.99;100.00;67352.69;5052555;28;20259;-88
2023/11/10 10:53:09;;;;;;;0.00;0.00;;;;;;;-144.99;100.00;67352.69;5050254;28;20186;-88
2023/11/10 10:55:38;;;;;;;0.93;0.50;;;;;;;-144.99;100.00;67352.69;5053193;28;20211;-88
2023/11/10 10:58:03;;;;;;;0.67;0.67;;;;;;;-144.99;100.00;67352.69;5052337;28;20214;-88
2023/11/10 11:00:31;;;;;;;1.13;0.27;;;;;;;-144.99;100.00;67352.69;5053671;28;20218;-88
2023/11/10 11:03:06;;;;;;;2.37;0.33;;;;;;;-144.99;100.00;67352.69;5052143;28;20179;-88
2023/11/10 11:05:52;;;;;;;0.23;0.20;;;;;;;-144.99;100.00;67352.69;5047184;28;20205;-88